createdAt,value
2017-09-10T00:01:49.051Z,94.64
2017-09-10T00:04:17.406Z,94.27
2017-09-10T00:06:45.776Z,94.15
2017-09-10T00:09:14.227Z,94.30
2017-09-10T00:11:42.595Z,94.47
2017-09-10T00:14:10.942Z,94.46
2017-09-10T00:16:39.305Z,94.63
2017-09-10T00:19:07.660Z,94.78
2017-09-10T00:21:36.036Z,95.33
2017-09-10T00:24:04.391Z,95.04
2017-09-10T00:26:32.731Z,95.66
2017-09-10T00:29:01.077Z,95.06
2017-09-10T00:31:29.422Z,95.49
2017-09-10T00:33:57.808Z,95.05
2017-09-10T00:36:26.148Z,95.08
2017-09-10T00:38:54.522Z,95.17
2017-09-10T00:41:22.869Z,95.11
2017-09-10T00:43:51.232Z,95.17
2017-09-10T00:46:19.617Z,94.71
2017-09-10T00:48:47.960Z,95.54
2017-09-10T00:51:16.313Z,95.39
2017-09-10T00:53:44.695Z,94.86
2017-09-10T00:56:13.053Z,94.33
2017-09-10T00:58:41.391Z,94.31
2017-09-10T01:01:10.007Z,94.82
2017-09-10T01:03:38.359Z,96.18
2017-09-10T01:06:06.727Z,95.05
2017-09-10T01:08:35.074Z,94.91
2017-09-10T01:11:03.544Z,94.72
2017-09-10T01:13:31.899Z,94.61
2017-09-10T01:16:00.248Z,95.16
2017-09-10T01:18:28.631Z,95.25
2017-09-10T01:20:56.980Z,94.92
2017-09-10T01:23:25.438Z,94.52
2017-09-10T01:25:53.966Z,94.88
2017-09-10T01:28:22.329Z,94.78
2017-09-10T01:30:50.668Z,95.16
2017-09-10T01:33:19.016Z,95.12
2017-09-10T01:35:47.368Z,95.14
2017-09-10T01:38:15.706Z,95.77
2017-09-10T01:40:44.064Z,95.49
2017-09-10T01:43:12.441Z,96.51
2017-09-10T01:45:40.785Z,95.09
2017-09-10T01:48:09.132Z,95.30
2017-09-10T01:50:37.473Z,95.34
2017-09-10T01:53:05.827Z,95.29
2017-09-10T01:55:34.282Z,94.74
2017-09-10T01:58:02.639Z,95.30
2017-09-10T02:00:30.984Z,94.81
2017-09-10T02:02:59.378Z,94.77
2017-09-10T02:05:27.711Z,95.41
2017-09-10T02:07:56.056Z,96.07
2017-09-10T02:10:24.399Z,96.26
2017-09-10T02:12:52.796Z,95.49
2017-09-10T02:15:21.151Z,95.17
2017-09-10T02:17:49.501Z,95.19
2017-09-10T02:20:17.865Z,94.99
2017-09-10T02:22:46.235Z,94.87
2017-09-10T02:25:14.593Z,95.13
2017-09-10T02:27:42.942Z,96.11
2017-09-10T02:30:11.892Z,95.44
2017-09-10T02:32:40.408Z,94.60
2017-09-10T02:35:08.750Z,94.60
2017-09-10T02:37:37.106Z,94.33
2017-09-10T02:40:05.486Z,95.04
2017-09-10T02:42:33.838Z,95.45
2017-09-10T02:45:02.251Z,94.64
2017-09-10T02:47:30.595Z,94.52
2017-09-10T02:49:58.934Z,94.93
2017-09-10T02:52:27.333Z,94.97
2017-09-10T02:54:55.712Z,94.86
2017-09-10T02:57:24.066Z,95.00
2017-09-10T02:59:52.433Z,94.82
2017-09-10T03:02:20.789Z,96.49
2017-09-10T03:04:49.126Z,95.40
2017-09-10T03:07:17.475Z,95.55
2017-09-10T03:09:45.908Z,95.78
2017-09-10T03:12:14.271Z,95.05
2017-09-10T03:14:42.626Z,94.80
2017-09-10T03:17:10.972Z,94.67
2017-09-10T03:19:39.318Z,94.54
2017-09-10T03:22:07.711Z,94.93
2017-09-10T03:24:36.072Z,95.10
2017-09-10T03:27:04.416Z,95.60
2017-09-10T03:29:32.759Z,95.61
2017-09-10T03:32:01.123Z,95.66
2017-09-10T03:34:29.498Z,95.73
2017-09-10T03:36:58.117Z,96.01
2017-09-10T03:39:26.459Z,95.82
2017-09-10T03:41:54.806Z,97.01
2017-09-10T03:44:23.149Z,95.66
2017-09-10T03:46:51.522Z,96.16
2017-09-10T03:49:19.869Z,95.75
2017-09-10T03:51:48.274Z,95.36
2017-09-10T03:54:16.622Z,95.14
2017-09-10T03:56:44.972Z,95.50
2017-09-10T03:59:13.324Z,96.17
2017-09-10T04:01:41.811Z,95.95
2017-09-10T04:04:10.175Z,95.75
2017-09-10T04:06:38.522Z,95.79
2017-09-10T04:09:06.873Z,95.69
2017-09-10T04:11:35.224Z,95.78
2017-09-10T04:14:03.608Z,95.68
2017-09-10T04:16:31.944Z,95.63
2017-09-10T04:19:00.291Z,96.88
2017-09-10T04:21:28.644Z,95.26
2017-09-10T04:23:57.023Z,95.13
2017-09-10T04:26:25.431Z,95.39
2017-09-10T04:28:53.836Z,95.89
2017-09-10T04:31:22.182Z,95.65
2017-09-10T04:33:50.523Z,96.25
2017-09-10T04:36:18.894Z,97.19
2017-09-10T04:38:47.242Z,96.55
2017-09-10T04:41:16.281Z,95.97
2017-09-10T04:43:44.627Z,95.87
2017-09-10T04:46:12.971Z,96.08
2017-09-10T04:48:41.351Z,95.61
2017-09-10T04:51:09.696Z,95.66
2017-09-10T04:53:38.044Z,95.16
2017-09-10T04:56:06.419Z,94.71
2017-09-10T04:58:34.775Z,94.99
2017-09-10T05:01:03.149Z,94.64
2017-09-10T05:03:31.491Z,94.73
2017-09-10T05:05:59.971Z,94.86
2017-09-10T05:08:28.317Z,94.84
2017-09-10T05:10:56.690Z,95.10
2017-09-10T05:13:25.052Z,95.39
2017-09-10T05:15:53.398Z,95.46
2017-09-10T05:18:21.743Z,95.26
2017-09-10T05:20:50.090Z,95.08
2017-09-10T05:23:18.465Z,95.07
2017-09-10T05:25:46.808Z,94.44
2017-09-10T05:28:15.187Z,94.53
2017-09-10T05:30:43.534Z,94.93
2017-09-10T05:33:11.911Z,94.75
2017-09-10T05:35:40.274Z,94.63
2017-09-10T05:38:08.748Z,94.36
2017-09-10T05:40:37.097Z,94.40
2017-09-10T05:43:05.443Z,94.00
2017-09-10T05:45:33.786Z,94.55
2017-09-10T05:48:02.118Z,94.86
2017-09-10T05:50:30.602Z,94.47
2017-09-10T05:52:58.963Z,94.36
2017-09-10T05:55:27.363Z,93.52
2017-09-10T05:57:55.726Z,93.41
2017-09-10T06:00:24.094Z,93.54
2017-09-10T06:02:52.439Z,93.92
2017-09-10T06:05:20.815Z,93.24
2017-09-10T06:07:49.193Z,92.95
2017-09-10T06:10:17.552Z,92.65
2017-09-10T06:12:45.890Z,91.71
2017-09-10T06:15:14.245Z,92.16
2017-09-10T06:17:42.589Z,90.62
2017-09-10T06:20:11.128Z,90.46
2017-09-10T06:22:39.499Z,90.80
2017-09-10T06:25:07.872Z,89.90
2017-09-10T06:27:36.216Z,88.37
2017-09-10T06:30:04.573Z,85.52
2017-09-10T06:32:32.924Z,84.09
2017-09-10T06:35:01.274Z,74.45
2017-09-10T06:37:29.633Z,69.46
2017-09-10T06:39:57.979Z,68.57
2017-09-10T06:42:26.310Z,68.12
2017-09-10T06:44:54.652Z,65.11
2017-09-10T06:47:23.025Z,66.13
2017-09-10T06:49:51.364Z,70.26
2017-09-10T06:52:19.742Z,74.35
2017-09-10T06:54:48.071Z,77.39
2017-09-10T06:57:16.427Z,77.03
2017-09-10T06:59:44.772Z,78.12
2017-09-10T07:02:13.110Z,77.27
2017-09-10T07:04:41.463Z,75.32
2017-09-10T07:07:09.810Z,73.02
2017-09-10T07:09:38.148Z,72.59
2017-09-10T07:12:06.492Z,72.81
2017-09-10T07:14:34.867Z,74.13
2017-09-10T07:17:03.210Z,76.03
2017-09-10T07:19:31.574Z,73.94
2017-09-10T07:22:00.327Z,74.67
2017-09-10T07:24:28.685Z,75.16
2017-09-10T07:26:57.017Z,75.24
2017-09-10T07:29:25.348Z,71.45
2017-09-10T07:31:53.714Z,72.34
2017-09-10T07:34:22.061Z,69.68
2017-09-10T07:36:50.631Z,69.00
2017-09-10T07:39:18.966Z,65.52
2017-09-10T07:41:47.323Z,69.81
2017-09-10T07:44:15.661Z,72.61
2017-09-10T07:46:44.022Z,70.40
2017-09-10T07:49:12.391Z,69.90
2017-09-10T07:51:40.738Z,66.96
2017-09-10T07:54:09.075Z,66.02
2017-09-10T07:56:37.459Z,63.06
2017-09-10T07:59:05.806Z,64.31
2017-09-10T08:01:34.184Z,63.71
2017-09-10T08:04:02.854Z,67.30
2017-09-10T08:06:31.183Z,64.68
2017-09-10T08:08:59.535Z,60.99
2017-09-10T08:11:27.874Z,58.43
2017-09-10T08:13:56.242Z,56.09
2017-09-10T08:16:24.583Z,56.06
2017-09-10T08:18:52.928Z,53.26
2017-09-10T08:21:21.304Z,53.57
2017-09-10T08:23:49.642Z,51.39
2017-09-10T08:26:17.979Z,49.69
2017-09-10T08:28:46.327Z,48.31
2017-09-10T08:31:14.672Z,47.32
2017-09-10T08:33:43.022Z,47.05
2017-09-10T08:36:11.372Z,46.22
2017-09-10T08:38:39.847Z,46.99
2017-09-10T08:41:08.188Z,46.45
2017-09-10T08:43:36.530Z,45.08
2017-09-10T08:46:04.885Z,45.62
2017-09-10T08:48:33.223Z,46.33
2017-09-10T08:51:01.562Z,46.98
2017-09-10T08:53:29.910Z,48.62
2017-09-10T08:55:58.278Z,47.92
2017-09-10T08:58:26.622Z,47.43
2017-09-10T09:00:54.964Z,45.45
2017-09-10T09:03:23.438Z,42.67
2017-09-10T09:05:51.771Z,46.71
2017-09-10T09:08:20.115Z,45.78
2017-09-10T09:10:48.453Z,46.23
2017-09-10T09:13:16.839Z,44.97
2017-09-10T09:15:45.173Z,45.19
2017-09-10T09:18:14.367Z,44.89
2017-09-10T09:20:42.715Z,42.65
2017-09-10T09:23:11.092Z,43.58
2017-09-10T09:25:39.454Z,46.84
2017-09-10T09:28:07.797Z,44.98
2017-09-10T09:30:36.136Z,43.79
2017-09-10T09:33:04.475Z,44.67
2017-09-10T09:35:32.816Z,44.19
2017-09-10T09:38:01.159Z,44.72
2017-09-10T09:40:29.499Z,46.03
2017-09-10T09:42:57.918Z,46.67
2017-09-10T09:45:26.254Z,45.85
2017-09-10T09:47:54.591Z,43.10
2017-09-10T09:50:22.937Z,45.01
2017-09-10T09:52:51.326Z,42.63
2017-09-10T09:55:19.654Z,43.30
2017-09-10T09:57:48.000Z,46.38
2017-09-10T10:00:16.347Z,43.21
2017-09-10T10:02:44.696Z,41.93
2017-09-10T10:05:13.040Z,41.59
2017-09-10T10:07:41.383Z,41.02
2017-09-10T10:10:09.731Z,40.38
2017-09-10T10:12:38.101Z,38.78
2017-09-10T10:15:06.439Z,41.42
2017-09-10T10:17:34.782Z,40.86
2017-09-10T10:20:03.311Z,42.07
2017-09-10T10:22:31.647Z,41.25
2017-09-10T10:25:00.040Z,39.74
2017-09-10T10:27:28.383Z,42.72
2017-09-10T10:29:56.721Z,44.97
2017-09-10T10:32:25.075Z,44.29
2017-09-10T10:34:53.465Z,44.03
2017-09-10T10:37:21.831Z,40.86
2017-09-10T10:39:50.684Z,41.10
2017-09-10T10:42:19.699Z,40.39
2017-09-10T10:44:48.113Z,42.10
2017-09-10T10:47:16.451Z,39.88
2017-09-10T10:49:44.826Z,40.30
2017-09-10T10:52:13.194Z,43.00
2017-09-10T10:54:41.577Z,46.18
2017-09-10T10:57:09.918Z,47.09
2017-09-10T10:59:38.263Z,45.41
2017-09-10T11:02:06.635Z,48.76
2017-09-10T11:04:34.979Z,49.08
2017-09-10T11:07:03.481Z,49.32
2017-09-10T11:09:31.808Z,50.58
2017-09-10T11:12:00.149Z,54.22
2017-09-10T11:14:28.640Z,54.31
2017-09-10T11:16:56.980Z,53.64
2017-09-10T11:19:25.362Z,56.22
2017-09-10T11:21:53.741Z,52.60
2017-09-10T11:24:22.073Z,55.25
2017-09-10T11:26:50.415Z,57.12
2017-09-10T11:29:18.794Z,59.58
2017-09-10T11:31:47.137Z,59.50
2017-09-10T11:34:15.502Z,60.07
2017-09-10T11:36:43.836Z,59.53
2017-09-10T11:39:12.201Z,56.74
2017-09-10T11:41:40.575Z,53.74
2017-09-10T11:44:13.438Z,53.15
2017-09-10T11:46:41.916Z,49.26
2017-09-10T11:49:10.271Z,47.20
2017-09-10T11:51:38.622Z,46.65
2017-09-10T11:54:06.962Z,49.32
2017-09-10T11:56:35.301Z,52.83
2017-09-10T11:59:03.673Z,54.88
2017-09-10T12:01:32.009Z,54.78
2017-09-10T12:04:00.346Z,56.83
2017-09-10T12:06:29.106Z,56.55
2017-09-10T12:08:57.842Z,57.41
2017-09-10T12:11:26.443Z,56.01
2017-09-10T12:13:54.788Z,56.78
2017-09-10T12:16:23.150Z,57.23
2017-09-10T12:18:51.515Z,57.77
2017-09-10T12:21:25.811Z,58.11
2017-09-10T12:23:54.185Z,57.96
2017-09-10T12:26:22.526Z,58.72
2017-09-10T12:28:50.882Z,58.17
2017-09-10T12:31:19.226Z,59.53
2017-09-10T12:33:47.568Z,61.12
2017-09-10T12:36:15.902Z,62.58
2017-09-10T12:38:44.247Z,64.05
2017-09-10T12:41:12.738Z,63.52
2017-09-10T12:43:41.093Z,61.95
2017-09-10T12:46:09.435Z,60.46
2017-09-10T12:48:37.776Z,60.86
2017-09-10T12:51:06.129Z,60.63
2017-09-10T12:53:34.499Z,61.42
2017-09-10T12:56:08.556Z,59.54
2017-09-10T12:58:36.928Z,59.68
2017-09-10T13:01:05.275Z,60.12
2017-09-10T13:03:33.615Z,60.13
2017-09-10T13:06:01.996Z,61.01
2017-09-10T13:08:31.078Z,62.79
2017-09-10T13:10:59.471Z,63.18
2017-09-10T13:13:27.816Z,62.49
2017-09-10T13:15:56.185Z,60.89
2017-09-10T13:18:24.656Z,59.91
2017-09-10T13:20:53.014Z,58.78
2017-09-10T13:23:21.388Z,58.96
2017-09-10T13:25:49.757Z,60.44
2017-09-10T13:28:18.096Z,59.56
2017-09-10T13:30:46.473Z,60.28
2017-09-10T13:33:14.847Z,62.24
2017-09-10T13:35:43.222Z,61.35
2017-09-10T13:38:11.576Z,60.48
2017-09-10T13:40:39.976Z,61.16
2017-09-10T13:43:08.331Z,60.65
2017-09-10T13:45:36.690Z,60.71
2017-09-10T13:48:05.101Z,60.61
2017-09-10T13:50:33.448Z,61.18
2017-09-10T13:53:01.903Z,58.42
2017-09-10T13:55:30.257Z,59.11
2017-09-10T13:57:58.594Z,59.71
2017-09-10T14:00:26.961Z,59.11
2017-09-10T14:02:55.324Z,60.64
2017-09-10T14:05:23.679Z,61.96
2017-09-10T14:07:52.066Z,63.47
2017-09-10T14:10:20.508Z,61.13
2017-09-10T14:12:48.867Z,60.22
2017-09-10T14:15:17.203Z,60.72
2017-09-10T14:17:45.596Z,59.18
2017-09-10T14:20:13.927Z,60.68
2017-09-10T14:22:42.306Z,61.07
2017-09-10T14:25:10.646Z,59.87
2017-09-10T14:27:39.101Z,62.00
2017-09-10T14:30:07.483Z,60.30
2017-09-10T14:32:35.814Z,61.02
2017-09-10T14:35:04.181Z,62.07
2017-09-10T14:37:32.533Z,58.96
2017-09-10T14:40:00.953Z,59.18
2017-09-10T14:42:29.330Z,59.53
2017-09-10T14:44:57.694Z,58.49
2017-09-10T14:47:26.023Z,58.73
2017-09-10T14:49:54.384Z,59.49
2017-09-10T14:52:22.795Z,58.19
2017-09-10T14:54:51.126Z,58.16
2017-09-10T14:57:19.478Z,57.52
2017-09-10T14:59:47.806Z,57.33
2017-09-10T15:02:16.295Z,58.41
2017-09-10T15:04:44.750Z,58.15
2017-09-10T15:07:13.082Z,57.72
2017-09-10T15:09:41.426Z,59.62
2017-09-10T15:12:09.782Z,59.07
2017-09-10T15:14:38.114Z,58.44
2017-09-10T15:17:06.506Z,58.50
2017-09-10T15:19:34.978Z,58.74
2017-09-10T15:22:03.318Z,57.26
2017-09-10T15:24:31.658Z,59.20
2017-09-10T15:27:00.169Z,59.00
2017-09-10T15:29:28.502Z,58.21
2017-09-10T15:31:56.853Z,58.37
2017-09-10T15:34:25.250Z,58.47
2017-09-10T15:36:53.582Z,58.74
2017-09-10T15:39:22.026Z,58.74
2017-09-10T15:41:50.354Z,58.81
2017-09-10T15:44:18.694Z,58.77
2017-09-10T15:46:47.102Z,59.47
2017-09-10T15:49:15.438Z,59.41
2017-09-10T15:51:43.798Z,60.00
2017-09-10T15:54:12.142Z,59.81
2017-09-10T15:56:40.491Z,59.27
2017-09-10T15:59:08.825Z,59.33
2017-09-10T16:01:37.162Z,59.15
2017-09-10T16:04:05.526Z,60.06
2017-09-10T16:06:33.923Z,59.97
2017-09-10T16:09:02.362Z,61.44
2017-09-10T16:11:30.694Z,61.15
2017-09-10T16:13:59.078Z,60.97
2017-09-10T16:16:27.415Z,61.46
2017-09-10T16:18:55.751Z,61.82
2017-09-10T16:21:24.111Z,60.61
2017-09-10T16:23:52.443Z,61.49
2017-09-10T16:26:20.843Z,62.40
2017-09-10T16:28:49.184Z,62.16
2017-09-10T16:31:17.538Z,62.97
2017-09-10T16:33:45.871Z,63.38
2017-09-10T16:36:14.238Z,63.65
2017-09-10T16:38:42.614Z,63.47
2017-09-10T16:41:11.007Z,62.87
2017-09-10T16:43:39.326Z,63.30
2017-09-10T16:46:07.878Z,64.35
2017-09-10T16:48:36.898Z,64.21
2017-09-10T16:51:05.303Z,63.57
2017-09-10T16:53:33.632Z,64.48
2017-09-10T16:56:02.293Z,64.91
2017-09-10T16:58:30.662Z,64.71
2017-09-10T17:00:58.994Z,64.73
2017-09-10T17:03:27.794Z,64.71
2017-09-10T17:05:56.125Z,65.21
2017-09-10T17:08:24.457Z,65.61
2017-09-10T17:10:52.791Z,66.33
2017-09-10T17:13:21.122Z,66.12
2017-09-10T17:15:49.475Z,66.57
2017-09-10T17:18:17.814Z,66.48
2017-09-10T17:20:46.147Z,66.73
2017-09-10T17:23:14.482Z,67.36
2017-09-10T17:25:42.853Z,67.20
2017-09-10T17:28:11.230Z,68.04
2017-09-10T17:30:39.666Z,67.72
2017-09-10T17:33:08.026Z,68.96
2017-09-10T17:35:36.390Z,68.61
2017-09-10T17:38:04.738Z,68.29
2017-09-10T17:40:33.095Z,68.86
2017-09-10T17:43:01.799Z,68.75
2017-09-10T17:45:30.154Z,69.62
2017-09-10T17:47:58.486Z,71.16
2017-09-10T17:50:26.854Z,70.47
2017-09-10T17:52:55.186Z,71.10
2017-09-10T17:55:23.547Z,70.80
2017-09-10T17:57:51.973Z,70.64
2017-09-10T18:00:20.361Z,70.62
2017-09-10T18:02:48.820Z,71.06
2017-09-10T18:05:17.219Z,71.19
2017-09-10T18:07:45.542Z,71.04
2017-09-10T18:10:13.882Z,71.43
2017-09-10T18:12:42.263Z,72.03
2017-09-10T18:15:10.610Z,73.66
2017-09-10T18:17:38.938Z,72.68
2017-09-10T18:20:07.270Z,73.42
2017-09-10T18:22:35.607Z,73.47
2017-09-10T18:25:03.968Z,73.23
2017-09-10T18:27:32.334Z,73.70
2017-09-10T18:30:00.727Z,74.03
2017-09-10T18:32:29.098Z,75.58
2017-09-10T18:34:57.430Z,74.08
2017-09-10T18:37:26.057Z,74.87
2017-09-10T18:39:54.414Z,75.04
2017-09-10T18:42:22.779Z,75.10
2017-09-10T18:44:51.134Z,74.87
2017-09-10T18:47:19.475Z,75.18
2017-09-10T18:49:47.846Z,74.94
2017-09-10T18:52:16.170Z,76.11
2017-09-10T18:54:44.530Z,76.23
2017-09-10T18:57:12.906Z,74.87
2017-09-10T18:59:41.283Z,75.14
2017-09-10T19:02:09.610Z,75.64
2017-09-10T19:04:37.958Z,74.94
2017-09-10T19:07:06.293Z,75.97
2017-09-10T19:09:34.662Z,76.45
2017-09-10T19:12:03.199Z,75.79
2017-09-10T19:14:31.766Z,75.70
2017-09-10T19:17:00.099Z,75.31
2017-09-10T19:19:28.438Z,74.98
2017-09-10T19:21:56.831Z,75.38
2017-09-10T19:24:25.174Z,75.43
2017-09-10T19:26:53.514Z,75.91
2017-09-10T19:29:21.881Z,75.91
2017-09-10T19:31:50.219Z,76.12
2017-09-10T19:34:18.590Z,76.32
2017-09-10T19:36:46.930Z,76.12
2017-09-10T19:39:15.262Z,76.41
2017-09-10T19:41:43.646Z,76.50
2017-09-10T19:44:11.999Z,76.61
2017-09-10T19:46:40.363Z,76.68
2017-09-10T19:49:08.688Z,76.88
2017-09-10T19:51:37.042Z,77.50
2017-09-10T19:54:05.378Z,77.21
2017-09-10T19:56:33.715Z,77.15
2017-09-10T19:59:02.246Z,77.67
2017-09-10T20:01:30.907Z,77.64
2017-09-10T20:04:00.482Z,77.69
2017-09-10T20:06:30.022Z,78.35
2017-09-10T20:08:58.341Z,78.45
2017-09-10T20:11:26.687Z,78.76
2017-09-10T20:13:55.096Z,79.07
2017-09-10T20:16:23.497Z,79.07
2017-09-10T20:18:51.838Z,79.34
2017-09-10T20:21:20.316Z,79.35
2017-09-10T20:23:48.871Z,79.52
2017-09-10T20:26:17.205Z,80.04
2017-09-10T20:28:45.579Z,80.23
2017-09-10T20:31:13.943Z,80.77
2017-09-10T20:33:42.350Z,80.55
2017-09-10T20:36:10.815Z,80.70
2017-09-10T20:38:39.206Z,80.65
2017-09-10T20:41:07.746Z,80.37
2017-09-10T20:43:36.080Z,80.72
2017-09-10T20:46:04.412Z,80.54
2017-09-10T20:48:32.774Z,80.86
2017-09-10T20:51:01.106Z,80.63
2017-09-10T20:53:29.863Z,80.77
2017-09-10T20:55:58.274Z,80.88
2017-09-10T20:58:26.655Z,81.26
2017-09-10T21:00:55.054Z,80.92
2017-09-10T21:03:23.443Z,81.00
2017-09-10T21:05:51.860Z,81.40
2017-09-10T21:08:20.188Z,81.01
2017-09-10T21:10:48.564Z,81.04
2017-09-10T21:13:16.894Z,81.03
2017-09-10T21:15:45.262Z,80.68
2017-09-10T21:18:13.631Z,80.51
2017-09-10T21:20:41.991Z,80.33
2017-09-10T21:23:10.318Z,79.96
2017-09-10T21:25:38.654Z,79.92
2017-09-10T21:28:06.982Z,79.77
2017-09-10T21:30:35.316Z,79.88
2017-09-10T21:33:03.750Z,80.01
2017-09-10T21:35:32.085Z,80.19
2017-09-10T21:38:00.626Z,79.76
2017-09-10T21:40:28.949Z,79.62
2017-09-10T21:42:57.390Z,79.55
2017-09-10T21:45:25.746Z,79.45
2017-09-10T21:47:54.170Z,79.90
2017-09-10T21:50:22.539Z,79.65
2017-09-10T21:52:50.950Z,79.55
2017-09-10T21:55:19.301Z,79.18
2017-09-10T21:57:47.629Z,78.88
2017-09-10T22:00:15.962Z,78.87
2017-09-10T22:02:44.318Z,78.79
2017-09-10T22:05:12.655Z,79.01
2017-09-10T22:07:40.991Z,78.43
2017-09-10T22:10:09.390Z,78.93
2017-09-10T22:12:37.754Z,78.95
2017-09-10T22:15:06.114Z,78.49
2017-09-10T22:17:34.450Z,78.77
2017-09-10T22:20:02.780Z,78.58
2017-09-10T22:22:31.138Z,78.80
2017-09-10T22:24:59.531Z,78.58
2017-09-10T22:27:27.918Z,78.69
2017-09-10T22:29:56.254Z,79.01
2017-09-10T22:32:24.603Z,78.90
2017-09-10T22:34:52.933Z,78.68
2017-09-10T22:37:21.286Z,79.13
2017-09-10T22:39:49.705Z,78.98
2017-09-10T22:42:18.070Z,79.42
2017-09-10T22:44:46.397Z,79.25
2017-09-10T22:47:14.759Z,79.18
2017-09-10T22:49:43.086Z,79.34
2017-09-10T22:52:11.421Z,79.62
2017-09-10T22:54:39.752Z,78.95
2017-09-10T22:57:08.211Z,79.20
2017-09-10T22:59:39.883Z,79.32
2017-09-10T23:02:08.243Z,79.39
2017-09-10T23:04:36.573Z,79.56
2017-09-10T23:07:04.959Z,79.49
2017-09-10T23:09:33.391Z,79.86
2017-09-10T23:12:01.716Z,79.90
2017-09-10T23:14:30.046Z,79.89
2017-09-10T23:16:58.379Z,80.10
2017-09-10T23:19:26.709Z,80.02
2017-09-10T23:21:55.045Z,79.65
2017-09-10T23:24:23.494Z,79.56
2017-09-10T23:26:51.846Z,79.92
2017-09-10T23:29:20.178Z,79.88
2017-09-10T23:31:48.578Z,79.75
2017-09-10T23:34:16.913Z,79.43
2017-09-10T23:36:45.304Z,79.78
2017-09-10T23:39:13.635Z,79.68
2017-09-10T23:41:42.026Z,79.97
2017-09-10T23:44:10.448Z,79.92
2017-09-10T23:46:38.770Z,80.16
2017-09-10T23:49:07.104Z,80.03
2017-09-10T23:51:35.442Z,80.07
2017-09-10T23:54:03.910Z,79.95
2017-09-10T23:56:32.229Z,80.71
2017-09-10T23:59:00.596Z,80.37
